sensor_id;sensor_type;location;lat;lon;timestamp;temperature;humidity
6186;DHT22;3126;52.738;8.316;2023-05-19T00:04:18;7.60;99.90
6186;DHT22;3126;52.738;8.316;2023-05-19T00:09:19;7.60;99.90
6186;DHT22;3126;52.738;8.316;2023-05-19T00:14:20;7.70;99.90
6186;DHT22;3126;52.738;8.316;2023-05-19T00:19:20;7.80;99.90
6186;DHT22;3126;52.738;8.316;2023-05-19T00:24:23;7.80;99.90
6186;DHT22;3126;52.738;8.316;2023-05-19T00:29:24;7.70;99.90
6186;DHT22;3126;52.738;8.316;2023-05-19T00:34:24;7.60;99.90
6186;DHT22;3126;52.738;8.316;2023-05-19T00:39:25;7.50;99.90
6186;DHT22;3126;52.738;8.316;2023-05-19T00:44:25;7.50;99.90
6186;DHT22;3126;52.738;8.316;2023-05-19T00:49:26;7.40;99.90
6186;DHT22;3126;52.738;8.316;2023-05-19T00:54:27;7.30;99.90
6186;DHT22;3126;52.738;8.316;2023-05-19T00:59:28;7.20;99.90
6186;DHT22;3126;52.738;8.316;2023-05-19T01:04:28;7.20;99.90
6186;DHT22;3126;52.738;8.316;2023-05-19T01:09:34;7.20;99.90
6186;DHT22;3126;52.738;8.316;2023-05-19T02:40:38;7.10;99.90
6186;DHT22;3126;52.738;8.316;2023-05-19T02:45:39;5.90;99.90
6186;DHT22;3126;52.738;8.316;2023-05-19T02:50:39;5.90;99.90
6186;DHT22;3126;52.738;8.316;2023-05-19T02:55:41;5.90;99.90
6186;DHT22;3126;52.738;8.316;2023-05-19T03:00:41;5.80;99.90
6186;DHT22;3126;52.738;8.316;2023-05-19T03:10:45;5.80;99.90
6186;DHT22;3126;52.738;8.316;2023-05-19T03:15:46;5.70;99.90
6186;DHT22;3126;52.738;8.316;2023-05-19T03:20:46;5.70;99.90
6186;DHT22;3126;52.738;8.316;2023-05-19T03:25:47;5.70;99.90
6186;DHT22;3126;52.738;8.316;2023-05-19T03:30:48;5.60;99.90
6186;DHT22;3126;52.738;8.316;2023-05-19T03:35:52;5.60;99.90
6186;DHT22;3126;52.738;8.316;2023-05-19T03:40:52;5.60;99.90
6186;DHT22;3126;52.738;8.316;2023-05-19T03:45:53;5.60;99.90
6186;DHT22;3126;52.738;8.316;2023-05-19T03:50:53;5.70;99.90
6186;DHT22;3126;52.738;8.316;2023-05-19T03:55:55;5.70;99.90
6186;DHT22;3126;52.738;8.316;2023-05-19T04:00:56;5.70;99.90
6186;DHT22;3126;52.738;8.316;2023-05-19T04:05:57;5.70;99.90
6186;DHT22;3126;52.738;8.316;2023-05-19T04:10:57;5.70;99.90
6186;DHT22;3126;52.738;8.316;2023-05-19T04:15:58;5.70;99.90
6186;DHT22;3126;52.738;8.316;2023-05-19T04:20:58;5.70;99.90
6186;DHT22;3126;52.738;8.316;2023-05-19T04:31:01;5.70;99.90
6186;DHT22;3126;52.738;8.316;2023-05-19T04:36:02;6.00;99.90
6186;DHT22;3126;52.738;8.316;2023-05-19T04:41:07;6.10;99.90
6186;DHT22;3126;52.738;8.316;2023-05-19T04:46:11;6.20;99.90
6186;DHT22;3126;52.738;8.316;2023-05-19T04:51:12;6.30;99.90
6186;DHT22;3126;52.738;8.316;2023-05-19T04:56:13;6.50;99.90
6186;DHT22;3126;52.738;8.316;2023-05-19T05:36:25;7.10;99.90
6186;DHT22;3126;52.738;8.316;2023-05-19T06:11:38;8.80;98.70
6186;DHT22;3126;52.738;8.316;2023-05-19T06:16:39;11.20;87.00
6186;DHT22;3126;52.738;8.316;2023-05-19T06:21:40;11.60;86.40
6186;DHT22;3126;52.738;8.316;2023-05-19T07:36:58;11.90;82.20
6186;DHT22;3126;52.738;8.316;2023-05-19T07:41:59;17.60;62.60
6186;DHT22;3126;52.738;8.316;2023-05-19T07:47:00;17.50;61.70
6186;DHT22;3126;52.738;8.316;2023-05-19T07:52:01;17.50;63.20
6186;DHT22;3126;52.738;8.316;2023-05-19T08:02:03;18.10;62.00
6186;DHT22;3126;52.738;8.316;2023-05-19T08:07:04;18.10;61.40
6186;DHT22;3126;52.738;8.316;2023-05-19T08:12:04;18.50;60.30
6186;DHT22;3126;52.738;8.316;2023-05-19T08:17:05;18.90;59.00
6186;DHT22;3126;52.738;8.316;2023-05-19T08:32:09;19.50;58.50
6186;DHT22;3126;52.738;8.316;2023-05-19T08:42:11;20.40;57.60
6186;DHT22;3126;52.738;8.316;2023-05-19T08:47:12;20.10;57.40
6186;DHT22;3126;52.738;8.316;2023-05-19T08:57:17;21.10;53.90
6186;DHT22;3126;52.738;8.316;2023-05-19T09:02:18;21.40;52.20
6186;DHT22;3126;52.738;8.316;2023-05-19T09:07:20;21.50;51.90
6186;DHT22;3126;52.738;8.316;2023-05-19T09:12:22;21.50;49.60
6186;DHT22;3126;52.738;8.316;2023-05-19T09:17:22;21.60;48.80
6186;DHT22;3126;52.738;8.316;2023-05-19T09:22:24;21.70;47.00
6186;DHT22;3126;52.738;8.316;2023-05-19T09:27:25;21.80;48.20
6186;DHT22;3126;52.738;8.316;2023-05-19T09:32:26;21.80;45.20
6186;DHT22;3126;52.738;8.316;2023-05-19T09:37:27;21.90;45.20
6186;DHT22;3126;52.738;8.316;2023-05-19T09:42:28;22.20;43.00
6186;DHT22;3126;52.738;8.316;2023-05-19T09:47:39;22.40;42.90
6186;DHT22;3126;52.738;8.316;2023-05-19T09:52:43;22.50;42.30
6186;DHT22;3126;52.738;8.316;2023-05-19T09:57:44;22.80;42.10
6186;DHT22;3126;52.738;8.316;2023-05-19T10:02:46;23.00;41.50
6186;DHT22;3126;52.738;8.316;2023-05-19T10:07:49;22.30;41.00
6186;DHT22;3126;52.738;8.316;2023-05-19T10:12:50;22.20;41.80
6186;DHT22;3126;52.738;8.316;2023-05-19T10:17:52;22.50;41.60
6186;DHT22;3126;52.738;8.316;2023-05-19T10:22:53;22.90;40.10
6186;DHT22;3126;52.738;8.316;2023-05-19T10:28:07;22.60;41.10
6186;DHT22;3126;52.738;8.316;2023-05-19T10:33:15;23.20;40.10
6186;DHT22;3126;52.738;8.316;2023-05-19T10:38:34;23.60;40.00
6186;DHT22;3126;52.738;8.316;2023-05-19T10:44:10;22.80;39.00
6186;DHT22;3126;52.738;8.316;2023-05-19T10:49:21;21.90;40.20
6186;DHT22;3126;52.738;8.316;2023-05-19T10:54:42;21.60;43.60
6186;DHT22;3126;52.738;8.316;2023-05-19T10:59:45;21.50;42.40
6186;DHT22;3126;52.738;8.316;2023-05-19T11:04:48;21.70;41.10
6186;DHT22;3126;52.738;8.316;2023-05-19T11:09:51;21.20;43.20
6186;DHT22;3126;52.738;8.316;2023-05-19T11:14:53;21.70;39.30
6186;DHT22;3126;52.738;8.316;2023-05-19T11:19:55;22.30;40.30
6186;DHT22;3126;52.738;8.316;2023-05-19T11:24:56;22.70;39.70
6186;DHT22;3126;52.738;8.316;2023-05-19T11:30:09;22.80;38.30
6186;DHT22;3126;52.738;8.316;2023-05-19T11:35:19;23.00;38.60
6186;DHT22;3126;52.738;8.316;2023-05-19T11:40:22;22.60;39.00
6186;DHT22;3126;52.738;8.316;2023-05-19T11:45:24;22.20;38.90
6186;DHT22;3126;52.738;8.316;2023-05-19T11:50:25;22.40;38.50
6186;DHT22;3126;52.738;8.316;2023-05-19T11:55:26;21.70;41.50
6186;DHT22;3126;52.738;8.316;2023-05-19T12:00:28;22.00;39.40
6186;DHT22;3126;52.738;8.316;2023-05-19T12:05:29;22.80;38.30
6186;DHT22;3126;52.738;8.316;2023-05-19T12:10:31;22.90;36.80
6186;DHT22;3126;52.738;8.316;2023-05-19T12:15:33;23.10;36.90
6186;DHT22;3126;52.738;8.316;2023-05-19T12:20:34;23.20;37.50
6186;DHT22;3126;52.738;8.316;2023-05-19T12:25:34;22.50;37.20
6186;DHT22;3126;52.738;8.316;2023-05-19T12:30:35;22.30;36.20
6186;DHT22;3126;52.738;8.316;2023-05-19T12:35:36;21.80;39.40
6186;DHT22;3126;52.738;8.316;2023-05-19T12:40:37;22.10;38.20
6186;DHT22;3126;52.738;8.316;2023-05-19T12:45:39;22.40;36.60
6186;DHT22;3126;52.738;8.316;2023-05-19T12:50:42;22.70;36.30
6186;DHT22;3126;52.738;8.316;2023-05-19T12:55:44;23.50;36.70
6186;DHT22;3126;52.738;8.316;2023-05-19T13:00:45;22.90;35.10
6186;DHT22;3126;52.738;8.316;2023-05-19T13:05:48;22.00;35.70
6186;DHT22;3126;52.738;8.316;2023-05-19T13:10:49;21.60;37.30
6186;DHT22;3126;52.738;8.316;2023-05-19T13:15:50;21.50;38.20
6186;DHT22;3126;52.738;8.316;2023-05-19T13:20:50;22.10;35.50
6186;DHT22;3126;52.738;8.316;2023-05-19T13:25:52;22.70;36.30
6186;DHT22;3126;52.738;8.316;2023-05-19T13:30:52;22.60;36.30
6186;DHT22;3126;52.738;8.316;2023-05-19T13:35:54;21.70;36.80
6186;DHT22;3126;52.738;8.316;2023-05-19T13:40:56;21.00;37.60
6186;DHT22;3126;52.738;8.316;2023-05-19T13:45:56;21.20;39.50
6186;DHT22;3126;52.738;8.316;2023-05-19T13:50:57;21.90;36.10
6186;DHT22;3126;52.738;8.316;2023-05-19T13:55:59;22.60;36.50
6186;DHT22;3126;52.738;8.316;2023-05-19T14:00:59;22.20;38.70
6186;DHT22;3126;52.738;8.316;2023-05-19T14:06:00;21.80;35.70
6186;DHT22;3126;52.738;8.316;2023-05-19T14:11:00;21.30;36.90
6186;DHT22;3126;52.738;8.316;2023-05-19T14:16:01;21.80;38.40
6186;DHT22;3126;52.738;8.316;2023-05-19T14:21:02;22.00;36.90
6186;DHT22;3126;52.738;8.316;2023-05-19T14:26:02;21.40;37.70
6186;DHT22;3126;52.738;8.316;2023-05-19T14:31:03;21.20;39.00
6186;DHT22;3126;52.738;8.316;2023-05-19T14:36:06;20.90;38.90
6186;DHT22;3126;52.738;8.316;2023-05-19T14:41:06;20.40;38.40
6186;DHT22;3126;52.738;8.316;2023-05-19T14:46:07;20.10;39.60
6186;DHT22;3126;52.738;8.316;2023-05-19T14:51:07;20.00;40.10
6186;DHT22;3126;52.738;8.316;2023-05-19T14:56:08;20.30;39.10
6186;DHT22;3126;52.738;8.316;2023-05-19T15:01:08;20.80;40.60
6186;DHT22;3126;52.738;8.316;2023-05-19T15:06:09;20.60;39.50
6186;DHT22;3126;52.738;8.316;2023-05-19T15:11:10;20.40;40.50
6186;DHT22;3126;52.738;8.316;2023-05-19T15:16:10;21.00;39.40
6186;DHT22;3126;52.738;8.316;2023-05-19T15:21:11;21.10;36.20
6186;DHT22;3126;52.738;8.316;2023-05-19T15:26:12;20.70;38.00
6186;DHT22;3126;52.738;8.316;2023-05-19T15:31:12;20.40;39.60
6186;DHT22;3126;52.738;8.316;2023-05-19T15:36:13;20.10;41.10
6186;DHT22;3126;52.738;8.316;2023-05-19T15:41:15;19.80;38.60
6186;DHT22;3126;52.738;8.316;2023-05-19T15:46:16;19.40;40.00
6186;DHT22;3126;52.738;8.316;2023-05-19T15:51:18;19.40;41.30
6186;DHT22;3126;52.738;8.316;2023-05-19T15:56:19;20.00;39.90
6186;DHT22;3126;52.738;8.316;2023-05-19T16:01:20;20.50;38.10
6186;DHT22;3126;52.738;8.316;2023-05-19T16:06:21;20.50;38.70
6186;DHT22;3126;52.738;8.316;2023-05-19T16:11:22;20.30;40.00
6186;DHT22;3126;52.738;8.316;2023-05-19T16:16:23;20.10;40.40
6186;DHT22;3126;52.738;8.316;2023-05-19T16:21:23;19.90;41.90
6186;DHT22;3126;52.738;8.316;2023-05-19T16:26:24;19.60;40.90
6186;DHT22;3126;52.738;8.316;2023-05-19T16:31:25;19.30;41.20
6186;DHT22;3126;52.738;8.316;2023-05-19T16:36:26;19.10;41.40
6186;DHT22;3126;52.738;8.316;2023-05-19T16:41:26;19.40;41.10
6186;DHT22;3126;52.738;8.316;2023-05-19T16:46:27;19.70;40.80
6186;DHT22;3126;52.738;8.316;2023-05-19T16:51:27;19.80;38.40
6186;DHT22;3126;52.738;8.316;2023-05-19T16:56:28;19.70;39.30
6186;DHT22;3126;52.738;8.316;2023-05-19T17:01:28;19.40;40.50
6186;DHT22;3126;52.738;8.316;2023-05-19T17:06:29;19.20;40.50
6186;DHT22;3126;52.738;8.316;2023-05-19T17:11:30;19.00;40.30
6186;DHT22;3126;52.738;8.316;2023-05-19T17:16:30;18.70;40.80
6186;DHT22;3126;52.738;8.316;2023-05-19T17:21:31;18.50;42.00
6186;DHT22;3126;52.738;8.316;2023-05-19T17:26:32;18.30;42.90
6186;DHT22;3126;52.738;8.316;2023-05-19T17:31:33;18.30;43.20
6186;DHT22;3126;52.738;8.316;2023-05-19T17:36:34;18.30;43.50
6186;DHT22;3126;52.738;8.316;2023-05-19T17:41:34;18.30;43.10
6186;DHT22;3126;52.738;8.316;2023-05-19T17:46:35;18.40;42.90
6186;DHT22;3126;52.738;8.316;2023-05-19T17:51:37;18.40;43.30
6186;DHT22;3126;52.738;8.316;2023-05-19T17:56:40;18.40;43.20
6186;DHT22;3126;52.738;8.316;2023-05-19T18:01:43;18.30;43.10
6186;DHT22;3126;52.738;8.316;2023-05-19T18:06:45;18.20;43.00
6186;DHT22;3126;52.738;8.316;2023-05-19T18:11:46;18.30;43.40
6186;DHT22;3126;52.738;8.316;2023-05-19T18:16:47;18.30;43.80
6186;DHT22;3126;52.738;8.316;2023-05-19T18:21:49;18.20;44.20
6186;DHT22;3126;52.738;8.316;2023-05-19T18:26:50;17.90;45.20
6186;DHT22;3126;52.738;8.316;2023-05-19T18:31:50;17.70;45.90
6186;DHT22;3126;52.738;8.316;2023-05-19T18:36:51;17.50;47.40
6186;DHT22;3126;52.738;8.316;2023-05-19T19:27:01;17.30;48.40
6186;DHT22;3126;52.738;8.316;2023-05-19T19:37:03;15.60;56.50
6186;DHT22;3126;52.738;8.316;2023-05-19T19:42:30;15.40;58.00
6186;DHT22;3126;52.738;8.316;2023-05-19T19:52:33;15.20;59.20
6186;DHT22;3126;52.738;8.316;2023-05-19T19:57:34;15.10;59.90
6186;DHT22;3126;52.738;8.316;2023-05-19T20:02:35;15.10;60.30
6186;DHT22;3126;52.738;8.316;2023-05-19T20:07:39;15.10;61.00
6186;DHT22;3126;52.738;8.316;2023-05-19T20:12:39;15.00;61.30
6186;DHT22;3126;52.738;8.316;2023-05-19T20:17:40;14.90;61.90
6186;DHT22;3126;52.738;8.316;2023-05-19T20:22:40;14.90;63.00
6186;DHT22;3126;52.738;8.316;2023-05-19T20:27:43;14.90;63.00
6186;DHT22;3126;52.738;8.316;2023-05-19T20:32:44;14.80;63.40
6186;DHT22;3126;52.738;8.316;2023-05-19T20:37:45;14.80;63.90
6186;DHT22;3126;52.738;8.316;2023-05-19T20:42:47;14.70;64.50
6186;DHT22;3126;52.738;8.316;2023-05-19T20:47:51;14.60;65.10
6186;DHT22;3126;52.738;8.316;2023-05-19T20:52:52;14.50;65.70
6186;DHT22;3126;52.738;8.316;2023-05-19T20:57:53;14.40;66.20
6186;DHT22;3126;52.738;8.316;2023-05-19T21:02:53;14.40;66.60
6186;DHT22;3126;52.738;8.316;2023-05-19T21:07:54;14.30;67.20
6186;DHT22;3126;52.738;8.316;2023-05-19T21:12:54;14.20;68.00
6186;DHT22;3126;52.738;8.316;2023-05-19T21:17:57;14.00;68.90
6186;DHT22;3126;52.738;8.316;2023-05-19T21:22:58;14.00;69.20
6186;DHT22;3126;52.738;8.316;2023-05-19T21:27:58;13.90;69.30
6186;DHT22;3126;52.738;8.316;2023-05-19T21:32:59;13.90;69.70
6186;DHT22;3126;52.738;8.316;2023-05-19T21:37:59;13.80;70.20
6186;DHT22;3126;52.738;8.316;2023-05-19T21:43:00;13.80;70.50
6186;DHT22;3126;52.738;8.316;2023-05-19T21:48:00;13.80;70.10
6186;DHT22;3126;52.738;8.316;2023-05-19T21:53:01;13.90;69.80
6186;DHT22;3126;52.738;8.316;2023-05-19T21:58:02;13.90;69.80
6186;DHT22;3126;52.738;8.316;2023-05-19T22:03:03;13.90;69.90
6186;DHT22;3126;52.738;8.316;2023-05-19T22:08:03;14.00;69.50
6186;DHT22;3126;52.738;8.316;2023-05-19T22:13:04;14.00;69.10
6186;DHT22;3126;52.738;8.316;2023-05-19T22:18:04;14.00;68.70
6186;DHT22;3126;52.738;8.316;2023-05-19T22:23:06;14.00;68.90
6186;DHT22;3126;52.738;8.316;2023-05-19T22:28:06;14.00;69.00
6186;DHT22;3126;52.738;8.316;2023-05-19T22:33:11;14.00;68.80
6186;DHT22;3126;52.738;8.316;2023-05-19T22:38:12;13.90;68.80
6186;DHT22;3126;52.738;8.316;2023-05-19T22:43:12;14.00;68.60
6186;DHT22;3126;52.738;8.316;2023-05-19T22:48:13;13.90;68.70
6186;DHT22;3126;52.738;8.316;2023-05-19T22:53:13;13.90;69.20
6186;DHT22;3126;52.738;8.316;2023-05-19T22:58:14;13.90;68.80
6186;DHT22;3126;52.738;8.316;2023-05-19T23:03:14;13.90;69.10
